sensor_id;sensor_type;location;lat;lon;timestamp;P1;durP1;ratioP1;P2;durP2;ratioP2
58466;SDS011;44255;49.244;7.726;2022-10-16T03:32:43;6.43;;;1.55;;
58466;SDS011;44255;49.244;7.726;2022-10-16T03:37:34;5.90;;;1.60;;
58466;SDS011;44255;49.244;7.726;2022-10-16T03:40:00;4.33;;;1.30;;
58466;SDS011;44255;49.244;7.726;2022-10-16T03:42:25;2.13;;;1.40;;
58466;SDS011;44255;49.244;7.726;2022-10-16T03:44:51;4.17;;;1.23;;
58466;SDS011;44255;49.244;7.726;2022-10-16T03:47:16;3.23;;;1.23;;
58466;SDS011;44255;49.244;7.726;2022-10-16T03:49:45;2.78;;;1.48;;
58466;SDS011;44255;49.244;7.726;2022-10-16T03:52:10;7.83;;;1.70;;
58466;SDS011;44255;49.244;7.726;2022-10-16T03:54:35;6.13;;;1.60;;
58466;SDS011;44255;49.244;7.726;2022-10-16T03:57:01;5.80;;;1.90;;
58466;SDS011;44255;49.244;7.726;2022-10-16T03:59:26;6.80;;;2.10;;
58466;SDS011;44255;49.244;7.726;2022-10-16T04:01:51;5.07;;;1.93;;
58466;SDS011;44255;49.244;7.726;2022-10-16T04:04:16;2.57;;;1.93;;
58466;SDS011;44255;49.244;7.726;2022-10-16T04:06:42;4.30;;;1.70;;
58466;SDS011;44255;49.244;7.726;2022-10-16T04:09:07;5.10;;;1.70;;
58466;SDS011;44255;49.244;7.726;2022-10-16T04:11:32;3.77;;;1.70;;
58466;SDS011;44255;49.244;7.726;2022-10-16T04:13:57;3.70;;;2.10;;
58466;SDS011;44255;49.244;7.726;2022-10-16T04:16:23;8.93;;;2.00;;
58466;SDS011;44255;49.244;7.726;2022-10-16T04:18:48;3.63;;;2.20;;
58466;SDS011;44255;49.244;7.726;2022-10-16T04:21:13;4.50;;;1.50;;
58466;SDS011;44255;49.244;7.726;2022-10-16T04:23:38;5.57;;;1.80;;
58466;SDS011;44255;49.244;7.726;2022-10-16T04:26:04;5.17;;;1.67;;
58466;SDS011;44255;49.244;7.726;2022-10-16T04:28:29;8.80;;;1.87;;
58466;SDS011;44255;49.244;7.726;2022-10-16T04:30:54;4.93;;;1.50;;
58466;SDS011;44255;49.244;7.726;2022-10-16T04:33:19;1.50;;;1.40;;
58466;SDS011;44255;49.244;7.726;2022-10-16T04:35:45;10.07;;;2.00;;
58466;SDS011;44255;49.244;7.726;2022-10-16T04:38:10;2.57;;;1.57;;
58466;SDS011;44255;49.244;7.726;2022-10-16T04:40:35;3.95;;;1.40;;
58466;SDS011;44255;49.244;7.726;2022-10-16T04:43:02;3.03;;;1.48;;
58466;SDS011;44255;49.244;7.726;2022-10-16T04:45:28;3.45;;;1.25;;
58466;SDS011;44255;49.244;7.726;2022-10-16T04:47:56;3.87;;;1.90;;
58466;SDS011;44255;49.244;7.726;2022-10-16T04:50:22;4.85;;;2.30;;
58466;SDS011;44255;49.244;7.726;2022-10-16T04:52:47;10.00;;;2.57;;
58466;SDS011;44255;49.244;7.726;2022-10-16T04:55:12;10.67;;;2.50;;
58466;SDS011;44255;49.244;7.726;2022-10-16T04:57:38;7.30;;;2.50;;
58466;SDS011;44255;49.244;7.726;2022-10-16T05:00:03;7.87;;;3.97;;
58466;SDS011;44255;49.244;7.726;2022-10-16T05:02:29;10.45;;;2.92;;
58466;SDS011;44255;49.244;7.726;2022-10-16T05:04:54;8.13;;;4.63;;
58466;SDS011;44255;49.244;7.726;2022-10-16T05:07:19;7.87;;;3.30;;
58466;SDS011;44255;49.244;7.726;2022-10-16T05:09:44;11.47;;;3.93;;
58466;SDS011;44255;49.244;7.726;2022-10-16T05:12:09;6.77;;;4.60;;
58466;SDS011;44255;49.244;7.726;2022-10-16T05:14:35;9.83;;;4.77;;
58466;SDS011;44255;49.244;7.726;2022-10-16T05:17:00;7.63;;;3.30;;
58466;SDS011;44255;49.244;7.726;2022-10-16T05:19:25;4.30;;;2.90;;
58466;SDS011;44255;49.244;7.726;2022-10-16T05:21:51;5.17;;;2.67;;
58466;SDS011;44255;49.244;7.726;2022-10-16T05:24:16;3.57;;;2.00;;
58466;SDS011;44255;49.244;7.726;2022-10-16T05:26:41;6.20;;;2.43;;
58466;SDS011;44255;49.244;7.726;2022-10-16T05:29:06;6.20;;;2.10;;
58466;SDS011;44255;49.244;7.726;2022-10-16T05:31:32;4.70;;;2.50;;
58466;SDS011;44255;49.244;7.726;2022-10-16T05:33:58;4.77;;;2.63;;
58466;SDS011;44255;49.244;7.726;2022-10-16T05:36:24;3.45;;;2.33;;
58466;SDS011;44255;49.244;7.726;2022-10-16T05:38:50;5.63;;;2.80;;
58466;SDS011;44255;49.244;7.726;2022-10-16T05:41:16;6.68;;;2.90;;
58466;SDS011;44255;49.244;7.726;2022-10-16T05:43:46;6.93;;;2.90;;
58466;SDS011;44255;49.244;7.726;2022-10-16T05:46:11;6.57;;;2.60;;
58466;SDS011;44255;49.244;7.726;2022-10-16T05:48:37;8.37;;;2.83;;
58466;SDS011;44255;49.244;7.726;2022-10-16T05:51:03;5.03;;;2.73;;
58466;SDS011;44255;49.244;7.726;2022-10-16T05:53:32;5.65;;;3.03;;
58466;SDS011;44255;49.244;7.726;2022-10-16T05:55:58;7.55;;;3.10;;
58466;SDS011;44255;49.244;7.726;2022-10-16T05:58:24;5.33;;;2.67;;
58466;SDS011;44255;49.244;7.726;2022-10-16T06:01:01;5.80;;;3.10;;
58466;SDS011;44255;49.244;7.726;2022-10-16T06:03:31;3.97;;;3.40;;
58466;SDS011;44255;49.244;7.726;2022-10-16T06:05:57;10.13;;;3.17;;
58466;SDS011;44255;49.244;7.726;2022-10-16T06:08:22;4.77;;;2.30;;
58466;SDS011;44255;49.244;7.726;2022-10-16T06:10:48;11.30;;;3.00;;
58466;SDS011;44255;49.244;7.726;2022-10-16T06:13:13;7.28;;;3.60;;
58466;SDS011;44255;49.244;7.726;2022-10-16T06:15:40;4.38;;;3.50;;
58466;SDS011;44255;49.244;7.726;2022-10-16T06:18:07;11.05;;;6.13;;
58466;SDS011;44255;49.244;7.726;2022-10-16T06:20:33;7.90;;;4.97;;
58466;SDS011;44255;49.244;7.726;2022-10-16T06:22:58;13.70;;;7.27;;
58466;SDS011;44255;49.244;7.726;2022-10-16T06:25:24;15.53;;;7.77;;
58466;SDS011;44255;49.244;7.726;2022-10-16T06:27:49;12.23;;;6.63;;
58466;SDS011;44255;49.244;7.726;2022-10-16T06:30:14;10.30;;;5.73;;
58466;SDS011;44255;49.244;7.726;2022-10-16T06:32:39;10.03;;;4.43;;
58466;SDS011;44255;49.244;7.726;2022-10-16T06:35:05;6.87;;;3.90;;
58466;SDS011;44255;49.244;7.726;2022-10-16T06:37:30;4.77;;;3.90;;
58466;SDS011;44255;49.244;7.726;2022-10-16T06:39:55;10.00;;;5.90;;
58466;SDS011;44255;49.244;7.726;2022-10-16T06:42:21;10.60;;;6.90;;
58466;SDS011;44255;49.244;7.726;2022-10-16T06:44:46;12.50;;;6.20;;
58466;SDS011;44255;49.244;7.726;2022-10-16T06:47:11;5.97;;;4.47;;
58466;SDS011;44255;49.244;7.726;2022-10-16T06:49:36;6.63;;;3.13;;
58466;SDS011;44255;49.244;7.726;2022-10-16T06:52:02;8.88;;;4.20;;
58466;SDS011;44255;49.244;7.726;2022-10-16T06:54:27;12.40;;;4.38;;
58466;SDS011;44255;49.244;7.726;2022-10-16T06:56:53;6.43;;;3.90;;
58466;SDS011;44255;49.244;7.726;2022-10-16T06:59:21;7.18;;;4.05;;
58466;SDS011;44255;49.244;7.726;2022-10-16T07:01:47;5.45;;;4.30;;
58466;SDS011;44255;49.244;7.726;2022-10-16T07:04:12;7.32;;;4.95;;
58466;SDS011;44255;49.244;7.726;2022-10-16T07:06:37;7.30;;;4.60;;
58466;SDS011;44255;49.244;7.726;2022-10-16T07:09:04;8.60;;;4.37;;
58466;SDS011;44255;49.244;7.726;2022-10-16T07:11:31;9.30;;;4.50;;
58466;SDS011;44255;49.244;7.726;2022-10-16T07:13:56;6.83;;;4.70;;
58466;SDS011;44255;49.244;7.726;2022-10-16T07:16:22;6.83;;;3.90;;
58466;SDS011;44255;49.244;7.726;2022-10-16T07:18:49;5.25;;;4.00;;
58466;SDS011;44255;49.244;7.726;2022-10-16T07:21:17;9.63;;;4.97;;
58466;SDS011;44255;49.244;7.726;2022-10-16T07:23:45;6.15;;;4.35;;
58466;SDS011;44255;49.244;7.726;2022-10-16T07:26:14;11.27;;;6.60;;
58466;SDS011;44255;49.244;7.726;2022-10-16T07:28:39;7.83;;;5.70;;
58466;SDS011;44255;49.244;7.726;2022-10-16T07:31:06;10.40;;;6.63;;
58466;SDS011;44255;49.244;7.726;2022-10-16T07:33:33;13.02;;;8.13;;
58466;SDS011;44255;49.244;7.726;2022-10-16T07:35:59;11.07;;;8.07;;
58466;SDS011;44255;49.244;7.726;2022-10-16T07:38:24;16.97;;;9.20;;
58466;SDS011;44255;49.244;7.726;2022-10-16T07:40:59;11.80;;;7.70;;
58466;SDS011;44255;49.244;7.726;2022-10-16T07:43:26;9.88;;;7.57;;
58466;SDS011;44255;49.244;7.726;2022-10-16T07:45:52;14.70;;;5.97;;
58466;SDS011;44255;49.244;7.726;2022-10-16T07:48:18;6.93;;;4.78;;
58466;SDS011;44255;49.244;7.726;2022-10-16T07:50:44;27.83;;;16.52;;
58466;SDS011;44255;49.244;7.726;2022-10-16T07:53:10;26.17;;;16.70;;
58466;SDS011;44255;49.244;7.726;2022-10-16T07:58:01;40.03;;;27.60;;
58466;SDS011;44255;49.244;7.726;2022-10-16T08:00:26;32.00;;;22.93;;
58466;SDS011;44255;49.244;7.726;2022-10-16T08:02:52;23.20;;;17.47;;
58466;SDS011;44255;49.244;7.726;2022-10-16T08:05:17;22.40;;;16.97;;
58466;SDS011;44255;49.244;7.726;2022-10-16T08:07:42;17.17;;;14.00;;
58466;SDS011;44255;49.244;7.726;2022-10-16T08:10:12;15.83;;;13.47;;
58466;SDS011;44255;49.244;7.726;2022-10-16T08:12:41;14.90;;;11.85;;
58466;SDS011;44255;49.244;7.726;2022-10-16T08:15:07;17.00;;;11.97;;
58466;SDS011;44255;49.244;7.726;2022-10-16T08:17:33;16.73;;;12.02;;
58466;SDS011;44255;49.244;7.726;2022-10-16T08:19:58;14.83;;;10.20;;
58466;SDS011;44255;49.244;7.726;2022-10-16T08:22:23;12.10;;;9.47;;
58466;SDS011;44255;49.244;7.726;2022-10-16T08:24:48;9.53;;;5.83;;
58466;SDS011;44255;49.244;7.726;2022-10-16T08:27:13;5.13;;;3.80;;
58466;SDS011;44255;49.244;7.726;2022-10-16T08:29:39;7.33;;;4.37;;
58466;SDS011;44255;49.244;7.726;2022-10-16T08:32:04;5.03;;;3.87;;
58466;SDS011;44255;49.244;7.726;2022-10-16T08:34:29;8.00;;;4.13;;
58466;SDS011;44255;49.244;7.726;2022-10-16T08:36:55;4.40;;;2.93;;
58466;SDS011;44255;49.244;7.726;2022-10-16T08:39:20;5.80;;;3.60;;
58466;SDS011;44255;49.244;7.726;2022-10-16T08:47:34;4.53;;;3.92;;
58466;SDS011;44255;49.244;7.726;2022-10-16T08:50:08;6.07;;;4.53;;
58466;SDS011;44255;49.244;7.726;2022-10-16T08:52:38;10.10;;;5.88;;
58466;SDS011;44255;49.244;7.726;2022-10-16T08:55:08;11.00;;;7.20;;
58466;SDS011;44255;49.244;7.726;2022-10-16T08:57:50;4.45;;;3.47;;
58466;SDS011;44255;49.244;7.726;2022-10-16T09:00:15;7.57;;;2.37;;
58466;SDS011;44255;49.244;7.726;2022-10-16T09:05:38;2.85;;;2.17;;
58466;SDS011;44255;49.244;7.726;2022-10-16T09:16:30;3.38;;;2.80;;
58466;SDS011;44255;49.244;7.726;2022-10-16T09:19:01;3.75;;;2.20;;
58466;SDS011;44255;49.244;7.726;2022-10-16T09:21:43;3.75;;;2.85;;
58466;SDS011;44255;49.244;7.726;2022-10-16T09:24:19;4.13;;;2.85;;
58466;SDS011;44255;49.244;7.726;2022-10-16T09:26:48;3.95;;;2.33;;
58466;SDS011;44255;49.244;7.726;2022-10-16T09:29:15;5.00;;;2.30;;
58466;SDS011;44255;49.244;7.726;2022-10-16T09:31:44;3.65;;;2.53;;
58466;SDS011;44255;49.244;7.726;2022-10-16T09:34:17;4.07;;;2.22;;
58466;SDS011;44255;49.244;7.726;2022-10-16T09:36:52;4.85;;;2.35;;
58466;SDS011;44255;49.244;7.726;2022-10-16T09:39:17;4.97;;;2.73;;
58466;SDS011;44255;49.244;7.726;2022-10-16T09:41:43;3.17;;;2.60;;
58466;SDS011;44255;49.244;7.726;2022-10-16T09:46:46;6.35;;;3.45;;
58466;SDS011;44255;49.244;7.726;2022-10-16T09:51:48;9.38;;;3.85;;
58466;SDS011;44255;49.244;7.726;2022-10-16T09:54:14;8.37;;;2.90;;
58466;SDS011;44255;49.244;7.726;2022-10-16T09:56:41;9.30;;;3.50;;
58466;SDS011;44255;49.244;7.726;2022-10-16T09:59:17;7.20;;;4.57;;
58466;SDS011;44255;49.244;7.726;2022-10-16T10:01:45;6.38;;;2.88;;
58466;SDS011;44255;49.244;7.726;2022-10-16T10:04:12;4.95;;;3.00;;
58466;SDS011;44255;49.244;7.726;2022-10-16T10:06:44;6.07;;;3.03;;
58466;SDS011;44255;49.244;7.726;2022-10-16T10:09:16;11.43;;;6.60;;
58466;SDS011;44255;49.244;7.726;2022-10-16T10:11:54;6.75;;;4.57;;
58466;SDS011;44255;49.244;7.726;2022-10-16T10:14:22;8.05;;;3.40;;
58466;SDS011;44255;49.244;7.726;2022-10-16T10:16:50;8.02;;;3.30;;
58466;SDS011;44255;49.244;7.726;2022-10-16T10:19:17;6.50;;;3.35;;
58466;SDS011;44255;49.244;7.726;2022-10-16T10:21:47;5.93;;;3.03;;
58466;SDS011;44255;49.244;7.726;2022-10-16T10:24:14;4.97;;;2.63;;
58466;SDS011;44255;49.244;7.726;2022-10-16T10:26:51;3.38;;;2.40;;
58466;SDS011;44255;49.244;7.726;2022-10-16T10:29:53;4.40;;;2.53;;
58466;SDS011;44255;49.244;7.726;2022-10-16T10:32:44;2.50;;;2.03;;
58466;SDS011;44255;49.244;7.726;2022-10-16T10:36:07;4.65;;;2.50;;
58466;SDS011;44255;49.244;7.726;2022-10-16T10:51:56;5.07;;;2.10;;
58466;SDS011;44255;49.244;7.726;2022-10-16T10:54:33;4.55;;;2.00;;
58466;SDS011;44255;49.244;7.726;2022-10-16T11:00:12;3.42;;;1.70;;
58466;SDS011;44255;49.244;7.726;2022-10-16T11:02:57;4.32;;;1.65;;
58466;SDS011;44255;49.244;7.726;2022-10-16T11:08:15;4.20;;;2.60;;
58466;SDS011;44255;49.244;7.726;2022-10-16T11:13:30;3.22;;;1.88;;
58466;SDS011;44255;49.244;7.726;2022-10-16T11:16:02;3.22;;;1.98;;
58466;SDS011;44255;49.244;7.726;2022-10-16T11:18:40;2.13;;;1.88;;
58466;SDS011;44255;49.244;7.726;2022-10-16T11:21:14;4.60;;;1.73;;
58466;SDS011;44255;49.244;7.726;2022-10-16T11:23:46;5.03;;;1.83;;
58466;SDS011;44255;49.244;7.726;2022-10-16T11:26:23;3.38;;;1.67;;
58466;SDS011;44255;49.244;7.726;2022-10-16T11:28:51;3.97;;;1.85;;
58466;SDS011;44255;49.244;7.726;2022-10-16T11:31:28;3.33;;;1.55;;
58466;SDS011;44255;49.244;7.726;2022-10-16T11:34:05;4.32;;;2.92;;
58466;SDS011;44255;49.244;7.726;2022-10-16T11:36:42;6.20;;;4.13;;
58466;SDS011;44255;49.244;7.726;2022-10-16T11:39:28;3.28;;;2.35;;
58466;SDS011;44255;49.244;7.726;2022-10-16T11:42:16;4.75;;;2.25;;
58466;SDS011;44255;49.244;7.726;2022-10-16T11:47:51;3.88;;;2.00;;
58466;SDS011;44255;49.244;7.726;2022-10-16T11:56:03;2.20;;;1.80;;
58466;SDS011;44255;49.244;7.726;2022-10-16T11:58:36;1.95;;;1.75;;
58466;SDS011;44255;49.244;7.726;2022-10-16T12:01:19;5.38;;;2.15;;
58466;SDS011;44255;49.244;7.726;2022-10-16T12:04:02;3.80;;;1.98;;
58466;SDS011;44255;49.244;7.726;2022-10-16T12:09:29;3.55;;;1.55;;
58466;SDS011;44255;49.244;7.726;2022-10-16T12:11:57;2.88;;;1.42;;
58466;SDS011;44255;49.244;7.726;2022-10-16T12:17:03;2.58;;;1.58;;
58466;SDS011;44255;49.244;7.726;2022-10-16T12:19:58;3.13;;;1.65;;
58466;SDS011;44255;49.244;7.726;2022-10-16T12:22:27;3.50;;;1.63;;
58466;SDS011;44255;49.244;7.726;2022-10-16T12:24:54;2.15;;;1.73;;
58466;SDS011;44255;49.244;7.726;2022-10-16T12:29:47;7.57;;;1.80;;
58466;SDS011;44255;49.244;7.726;2022-10-16T12:32:27;2.83;;;1.52;;
58466;SDS011;44255;49.244;7.726;2022-10-16T12:34:55;2.17;;;1.75;;
58466;SDS011;44255;49.244;7.726;2022-10-16T12:37:22;3.35;;;2.22;;
58466;SDS011;44255;49.244;7.726;2022-10-16T12:39:51;6.63;;;2.97;;
58466;SDS011;44255;49.244;7.726;2022-10-16T12:42:36;6.13;;;2.70;;
58466;SDS011;44255;49.244;7.726;2022-10-16T12:45:02;15.20;;;5.47;;
58466;SDS011;44255;49.244;7.726;2022-10-16T12:47:50;20.75;;;7.15;;
58466;SDS011;44255;49.244;7.726;2022-10-16T12:50:35;30.20;;;9.13;;
58466;SDS011;44255;49.244;7.726;2022-10-16T12:53:04;4.43;;;2.63;;
58466;SDS011;44255;49.244;7.726;2022-10-16T12:55:45;9.85;;;2.65;;
58466;SDS011;44255;49.244;7.726;2022-10-16T12:58:33;7.35;;;3.92;;
58466;SDS011;44255;49.244;7.726;2022-10-16T13:09:12;2.00;;;1.80;;
58466;SDS011;44255;49.244;7.726;2022-10-16T13:17:03;2.10;;;1.90;;
58466;SDS011;44255;49.244;7.726;2022-10-16T13:19:37;2.47;;;2.20;;
58466;SDS011;44255;49.244;7.726;2022-10-16T13:28:05;5.95;;;2.47;;
58466;SDS011;44255;49.244;7.726;2022-10-16T13:30:38;4.03;;;1.98;;
58466;SDS011;44255;49.244;7.726;2022-10-16T13:33:07;7.95;;;2.10;;
58466;SDS011;44255;49.244;7.726;2022-10-16T13:35:51;3.17;;;2.08;;
58466;SDS011;44255;49.244;7.726;2022-10-16T13:38:19;8.70;;;2.17;;
58466;SDS011;44255;49.244;7.726;2022-10-16T13:41:04;4.10;;;2.50;;
58466;SDS011;44255;49.244;7.726;2022-10-16T13:43:41;5.22;;;2.05;;
58466;SDS011;44255;49.244;7.726;2022-10-16T13:46:19;2.45;;;2.08;;
58466;SDS011;44255;49.244;7.726;2022-10-16T13:51:27;7.47;;;3.72;;
58466;SDS011;44255;49.244;7.726;2022-10-16T13:53:53;3.80;;;2.95;;
58466;SDS011;44255;49.244;7.726;2022-10-16T13:56:21;5.53;;;3.40;;
58466;SDS011;44255;49.244;7.726;2022-10-16T13:59:22;7.03;;;3.00;;
58466;SDS011;44255;49.244;7.726;2022-10-16T14:02:18;4.97;;;3.42;;
58466;SDS011;44255;49.244;7.726;2022-10-16T14:04:49;5.80;;;2.97;;
58466;SDS011;44255;49.244;7.726;2022-10-16T14:07:18;3.53;;;2.40;;
58466;SDS011;44255;49.244;7.726;2022-10-16T14:09:49;9.32;;;6.53;;
58466;SDS011;44255;49.244;7.726;2022-10-16T14:12:15;6.28;;;3.30;;
58466;SDS011;44255;49.244;7.726;2022-10-16T14:14:42;3.72;;;2.58;;
58466;SDS011;44255;49.244;7.726;2022-10-16T14:17:13;8.00;;;2.40;;
58466;SDS011;44255;49.244;7.726;2022-10-16T14:19:59;4.07;;;2.70;;
58466;SDS011;44255;49.244;7.726;2022-10-16T14:22:29;5.47;;;2.80;;
58466;SDS011;44255;49.244;7.726;2022-10-16T14:24:59;4.97;;;2.60;;
58466;SDS011;44255;49.244;7.726;2022-10-16T14:32:33;4.05;;;2.60;;
58466;SDS011;44255;49.244;7.726;2022-10-16T14:34:58;5.22;;;2.47;;
58466;SDS011;44255;49.244;7.726;2022-10-16T14:37:27;5.67;;;2.63;;
58466;SDS011;44255;49.244;7.726;2022-10-16T14:39:55;3.28;;;2.60;;
58466;SDS011;44255;49.244;7.726;2022-10-16T14:42:21;7.03;;;2.17;;
58466;SDS011;44255;49.244;7.726;2022-10-16T14:44:50;3.92;;;2.17;;
58466;SDS011;44255;49.244;7.726;2022-10-16T14:47:21;6.22;;;2.90;;
58466;SDS011;44255;49.244;7.726;2022-10-16T14:49:51;5.93;;;3.10;;
58466;SDS011;44255;49.244;7.726;2022-10-16T14:52:19;3.58;;;2.38;;
58466;SDS011;44255;49.244;7.726;2022-10-16T14:54:47;5.03;;;2.50;;
58466;SDS011;44255;49.244;7.726;2022-10-16T14:57:23;4.03;;;1.90;;
58466;SDS011;44255;49.244;7.726;2022-10-16T14:59:51;4.32;;;2.30;;
58466;SDS011;44255;49.244;7.726;2022-10-16T15:04:45;2.78;;;1.88;;
58466;SDS011;44255;49.244;7.726;2022-10-16T15:07:10;3.27;;;2.33;;
58466;SDS011;44255;49.244;7.726;2022-10-16T15:09:35;2.53;;;1.90;;
58466;SDS011;44255;49.244;7.726;2022-10-16T15:12:01;3.27;;;2.37;;
58466;SDS011;44255;49.244;7.726;2022-10-16T15:14:26;5.07;;;2.13;;
58466;SDS011;44255;49.244;7.726;2022-10-16T15:16:51;4.07;;;2.30;;
58466;SDS011;44255;49.244;7.726;2022-10-16T15:19:17;2.27;;;2.07;;
58466;SDS011;44255;49.244;7.726;2022-10-16T15:21:42;5.47;;;2.10;;
58466;SDS011;44255;49.244;7.726;2022-10-16T15:24:09;3.38;;;2.17;;
58466;SDS011;44255;49.244;7.726;2022-10-16T15:26:37;3.22;;;2.20;;
58466;SDS011;44255;49.244;7.726;2022-10-16T15:29:02;2.37;;;2.17;;
58466;SDS011;44255;49.244;7.726;2022-10-16T15:31:28;8.63;;;2.40;;
58466;SDS011;44255;49.244;7.726;2022-10-16T15:33:53;4.70;;;2.20;;
58466;SDS011;44255;49.244;7.726;2022-10-16T15:36:27;5.57;;;2.55;;
58466;SDS011;44255;49.244;7.726;2022-10-16T15:38:53;5.25;;;3.88;;
58466;SDS011;44255;49.244;7.726;2022-10-16T15:41:18;5.15;;;3.50;;
58466;SDS011;44255;49.244;7.726;2022-10-16T15:43:44;8.13;;;3.58;;
58466;SDS011;44255;49.244;7.726;2022-10-16T15:46:10;9.03;;;5.47;;
58466;SDS011;44255;49.244;7.726;2022-10-16T15:48:42;6.85;;;3.53;;
58466;SDS011;44255;49.244;7.726;2022-10-16T15:51:08;74.50;;;46.92;;
58466;SDS011;44255;49.244;7.726;2022-10-16T15:53:34;56.17;;;35.42;;
58466;SDS011;44255;49.244;7.726;2022-10-16T15:56:03;20.90;;;12.48;;
58466;SDS011;44255;49.244;7.726;2022-10-16T15:58:29;9.27;;;6.38;;
58466;SDS011;44255;49.244;7.726;2022-10-16T16:00:58;47.65;;;24.10;;
58466;SDS011;44255;49.244;7.726;2022-10-16T16:03:28;15.15;;;9.63;;
58466;SDS011;44255;49.244;7.726;2022-10-16T16:05:54;27.03;;;14.80;;
58466;SDS011;44255;49.244;7.726;2022-10-16T16:08:19;10.27;;;6.00;;
58466;SDS011;44255;49.244;7.726;2022-10-16T16:10:44;13.07;;;5.93;;
58466;SDS011;44255;49.244;7.726;2022-10-16T16:13:10;10.63;;;7.85;;
58466;SDS011;44255;49.244;7.726;2022-10-16T16:15:39;10.15;;;6.65;;
58466;SDS011;44255;49.244;7.726;2022-10-16T16:18:05;14.27;;;5.35;;
58466;SDS011;44255;49.244;7.726;2022-10-16T16:20:31;8.30;;;6.53;;
58466;SDS011;44255;49.244;7.726;2022-10-16T16:22:56;14.38;;;6.97;;
58466;SDS011;44255;49.244;7.726;2022-10-16T16:25:22;10.03;;;5.83;;
58466;SDS011;44255;49.244;7.726;2022-10-16T16:27:47;7.85;;;4.55;;
58466;SDS011;44255;49.244;7.726;2022-10-16T16:30:12;15.30;;;4.37;;
58466;SDS011;44255;49.244;7.726;2022-10-16T16:32:38;10.83;;;5.37;;
58466;SDS011;44255;49.244;7.726;2022-10-16T16:35:03;9.00;;;6.67;;
58466;SDS011;44255;49.244;7.726;2022-10-16T16:39:55;7.93;;;5.18;;
58466;SDS011;44255;49.244;7.726;2022-10-16T16:42:23;9.77;;;4.70;;
58466;SDS011;44255;49.244;7.726;2022-10-16T16:44:50;10.57;;;5.90;;
58466;SDS011;44255;49.244;7.726;2022-10-16T16:47:15;10.55;;;5.40;;
58466;SDS011;44255;49.244;7.726;2022-10-16T16:49:40;8.70;;;4.80;;
58466;SDS011;44255;49.244;7.726;2022-10-16T16:52:05;12.47;;;6.20;;
58466;SDS011;44255;49.244;7.726;2022-10-16T16:54:31;23.67;;;13.87;;
58466;SDS011;44255;49.244;7.726;2022-10-16T16:56:56;18.40;;;10.10;;
58466;SDS011;44255;49.244;7.726;2022-10-16T16:59:21;24.20;;;12.30;;
58466;SDS011;44255;49.244;7.726;2022-10-16T17:01:47;33.30;;;17.27;;
58466;SDS011;44255;49.244;7.726;2022-10-16T17:04:13;23.05;;;12.63;;
58466;SDS011;44255;49.244;7.726;2022-10-16T17:06:40;11.13;;;8.45;;
58466;SDS011;44255;49.244;7.726;2022-10-16T17:09:06;15.10;;;7.88;;
58466;SDS011;44255;49.244;7.726;2022-10-16T17:11:32;9.95;;;6.63;;
58466;SDS011;44255;49.244;7.726;2022-10-16T17:13:58;9.48;;;6.18;;
58466;SDS011;44255;49.244;7.726;2022-10-16T17:16:26;11.80;;;7.28;;
58466;SDS011;44255;49.244;7.726;2022-10-16T17:19:00;15.65;;;6.80;;
58466;SDS011;44255;49.244;7.726;2022-10-16T17:21:33;14.20;;;6.30;;
58466;SDS011;44255;49.244;7.726;2022-10-16T17:23:59;17.17;;;8.77;;
58466;SDS011;44255;49.244;7.726;2022-10-16T17:28:51;25.13;;;12.68;;
58466;SDS011;44255;49.244;7.726;2022-10-16T17:31:20;20.40;;;12.18;;
58466;SDS011;44255;49.244;7.726;2022-10-16T17:33:47;15.50;;;8.15;;
58466;SDS011;44255;49.244;7.726;2022-10-16T17:36:12;14.17;;;9.50;;
58466;SDS011;44255;49.244;7.726;2022-10-16T17:38:39;16.15;;;9.65;;
58466;SDS011;44255;49.244;7.726;2022-10-16T17:41:12;21.80;;;14.43;;
58466;SDS011;44255;49.244;7.726;2022-10-16T17:43:39;32.40;;;23.00;;
58466;SDS011;44255;49.244;7.726;2022-10-16T17:46:05;32.83;;;24.67;;
58466;SDS011;44255;49.244;7.726;2022-10-16T17:48:35;32.30;;;23.30;;
58466;SDS011;44255;49.244;7.726;2022-10-16T17:51:05;30.92;;;20.38;;
58466;SDS011;44255;49.244;7.726;2022-10-16T17:53:31;36.45;;;21.40;;
58466;SDS011;44255;49.244;7.726;2022-10-16T17:56:00;39.67;;;22.77;;
58466;SDS011;44255;49.244;7.726;2022-10-16T17:58:27;37.47;;;22.92;;
58466;SDS011;44255;49.244;7.726;2022-10-16T18:00:52;32.83;;;21.30;;
58466;SDS011;44255;49.244;7.726;2022-10-16T18:03:17;23.90;;;16.50;;
58466;SDS011;44255;49.244;7.726;2022-10-16T18:05:43;20.20;;;13.85;;
58466;SDS011;44255;49.244;7.726;2022-10-16T18:08:09;21.53;;;13.37;;
58466;SDS011;44255;49.244;7.726;2022-10-16T18:10:34;20.87;;;13.17;;
58466;SDS011;44255;49.244;7.726;2022-10-16T18:12:59;24.40;;;15.70;;
58466;SDS011;44255;49.244;7.726;2022-10-16T18:15:25;25.33;;;14.65;;
58466;SDS011;44255;49.244;7.726;2022-10-16T18:17:50;20.70;;;13.90;;
58466;SDS011;44255;49.244;7.726;2022-10-16T18:20:16;22.53;;;14.93;;
58466;SDS011;44255;49.244;7.726;2022-10-16T18:22:41;21.93;;;12.53;;
58466;SDS011;44255;49.244;7.726;2022-10-16T18:25:06;24.03;;;13.50;;
58466;SDS011;44255;49.244;7.726;2022-10-16T18:27:32;30.52;;;18.90;;
58466;SDS011;44255;49.244;7.726;2022-10-16T18:29:58;36.50;;;22.77;;
58466;SDS011;44255;49.244;7.726;2022-10-16T18:32:24;41.42;;;28.23;;
58466;SDS011;44255;49.244;7.726;2022-10-16T18:34:51;31.48;;;23.08;;
58466;SDS011;44255;49.244;7.726;2022-10-16T18:37:16;30.40;;;20.08;;
58466;SDS011;44255;49.244;7.726;2022-10-16T18:39:45;31.38;;;22.60;;
58466;SDS011;44255;49.244;7.726;2022-10-16T18:42:11;34.97;;;22.13;;
58466;SDS011;44255;49.244;7.726;2022-10-16T18:44:37;24.43;;;14.30;;
58466;SDS011;44255;49.244;7.726;2022-10-16T18:47:02;27.23;;;15.33;;
58466;SDS011;44255;49.244;7.726;2022-10-16T18:49:27;23.47;;;14.47;;
58466;SDS011;44255;49.244;7.726;2022-10-16T18:51:53;27.13;;;17.05;;
58466;SDS011;44255;49.244;7.726;2022-10-16T18:54:21;24.02;;;17.23;;
58466;SDS011;44255;49.244;7.726;2022-10-16T18:56:47;26.80;;;16.58;;
58466;SDS011;44255;49.244;7.726;2022-10-16T18:59:12;26.73;;;16.87;;
58466;SDS011;44255;49.244;7.726;2022-10-16T19:01:37;25.27;;;18.07;;
58466;SDS011;44255;49.244;7.726;2022-10-16T19:04:05;24.60;;;16.20;;
58466;SDS011;44255;49.244;7.726;2022-10-16T19:06:36;26.30;;;14.00;;
58466;SDS011;44255;49.244;7.726;2022-10-16T19:09:03;23.30;;;14.90;;
58466;SDS011;44255;49.244;7.726;2022-10-16T19:11:30;29.05;;;16.80;;
58466;SDS011;44255;49.244;7.726;2022-10-16T19:13:56;18.33;;;13.20;;
58466;SDS011;44255;49.244;7.726;2022-10-16T19:16:28;21.20;;;12.27;;
58466;SDS011;44255;49.244;7.726;2022-10-16T19:18:56;16.33;;;10.50;;
58466;SDS011;44255;49.244;7.726;2022-10-16T19:21:23;17.33;;;11.32;;
58466;SDS011;44255;49.244;7.726;2022-10-16T19:23:53;17.00;;;11.93;;
58466;SDS011;44255;49.244;7.726;2022-10-16T19:26:21;14.48;;;10.23;;
58466;SDS011;44255;49.244;7.726;2022-10-16T19:28:47;19.67;;;9.70;;
58466;SDS011;44255;49.244;7.726;2022-10-16T19:31:15;14.35;;;9.75;;
58466;SDS011;44255;49.244;7.726;2022-10-16T19:33:42;15.00;;;9.60;;
58466;SDS011;44255;49.244;7.726;2022-10-16T19:36:12;14.93;;;9.15;;
58466;SDS011;44255;49.244;7.726;2022-10-16T19:38:39;19.83;;;9.15;;
58466;SDS011;44255;49.244;7.726;2022-10-16T19:41:07;15.23;;;7.93;;
58466;SDS011;44255;49.244;7.726;2022-10-16T19:43:33;14.43;;;9.10;;
58466;SDS011;44255;49.244;7.726;2022-10-16T19:46:02;17.77;;;9.20;;
58466;SDS011;44255;49.244;7.726;2022-10-16T19:48:32;16.85;;;10.48;;
58466;SDS011;44255;49.244;7.726;2022-10-16T19:50:57;15.98;;;9.93;;
58466;SDS011;44255;49.244;7.726;2022-10-16T19:53:23;13.23;;;9.10;;
58466;SDS011;44255;49.244;7.726;2022-10-16T19:55:48;22.00;;;11.23;;
58466;SDS011;44255;49.244;7.726;2022-10-16T19:58:14;17.00;;;10.83;;
58466;SDS011;44255;49.244;7.726;2022-10-16T20:00:42;20.10;;;11.27;;